PWSweather.com
Personal Weather Stations
Station Observations
GRD01
Warsaw, LesznoPL 05-084

WarsawLesznoPL 05-084

Lat: 52.257404, Lon: 20.564847

Elevation: 298

Station Type: WH3080

http://pogoda.kampinos.waw.pl

High Low Average
Temperature 72.7°F22.6°F 49.3°F9.6°F 59.3°F15.2°F
Dew Point 52.4°F11.3°F 42.2°F5.7°F 48.2°F9.0°F
Winds 19.7 mph SW31.7 mph SW Calm Calm 6.2 mph 10.0 mph
Wind Gusts 42.5 mph68.4 mph 3.1 mph5.0 mph 12.8 mph20.6 mph
Humidity 93% 35% 70%
Pressure 29.60 in1002.40 in 29.35 in993.90 in -
Precipitation 0.04 in1.00 in - -
Hour Temp Dew Point Humidity Winds Wind Gusts Pressure Precip Precip Rate Daily Precip Total
12:00 AM 52.3°F11.3°C 49.5°F9.7°C 90% 4.5 mph SW7.2 kmh SW 6.0 mph9.7 kmh 29.60 in1002.4 mb 0.00 in0.0 mm 0.00 in0.0 mm 0.00 in0.0 mm
12:15 AM 52.0°F11.1°C 49.1°F9.5°C 90% 3.8 mph SSW6.1 kmh SSW 6.0 mph9.7 kmh 29.59 in1002.0 mb 0.00 in0.0 mm 0.00 in0.0 mm 0.00 in0.0 mm
12:30 AM 52.0°F11.1°C 49.4°F9.7°C 91% 4.5 mph SSE7.2 kmh SSE 6.0 mph9.7 kmh 29.60 in1002.4 mb 0.00 in0.0 mm 0.00 in0.0 mm 0.00 in0.0 mm
12:45 AM 51.8°F11.0°C 49.3°F9.6°C 91% 3.8 mph SSW6.1 kmh SSW 9.2 mph14.8 kmh 29.60 in1002.4 mb 0.00 in0.0 mm 0.00 in0.0 mm 0.00 in0.0 mm
01:00 AM 51.4°F10.8°C 48.9°F9.4°C 91% 1.6 mph SW2.6 kmh SW 6.0 mph9.7 kmh 29.60 in1002.4 mb 0.00 in0.0 mm 0.00 in0.0 mm 0.00 in0.0 mm
01:15 AM 51.3°F10.7°C 48.7°F9.3°C 91% 3.8 mph SW6.1 kmh SW 6.0 mph9.7 kmh 29.60 in1002.4 mb 0.00 in0.0 mm 0.00 in0.0 mm 0.00 in0.0 mm
01:30 AM 51.1°F10.6°C 48.5°F9.2°C 91% 2.2 mph SW3.5 kmh SW 7.6 mph12.2 kmh 29.60 in1002.4 mb 0.00 in0.0 mm 0.00 in0.0 mm 0.00 in0.0 mm
01:45 AM 50.9°F10.5°C 48.4°F9.1°C 91% 1.6 mph SW2.6 kmh SW 5.4 mph8.7 kmh 29.59 in1002.0 mb 0.00 in0.0 mm 0.00 in0.0 mm 0.00 in0.0 mm
02:00 AM 50.7°F10.4°C 48.2°F9.0°C 91% 3.8 mph SW6.1 kmh SW 6.0 mph9.7 kmh 29.59 in1002.0 mb 0.00 in0.0 mm 0.00 in0.0 mm 0.00 in0.0 mm
02:15 AM 50.5°F10.3°C 48.0°F8.9°C 91% 3.1 mph SW5.0 kmh SW 6.0 mph9.7 kmh 29.60 in1002.4 mb 0.00 in0.0 mm 0.00 in0.0 mm 0.00 in0.0 mm
02:30 AM 50.4°F10.2°C 47.8°F8.8°C 91% 2.2 mph SW3.5 kmh SW 6.9 mph11.1 kmh 29.60 in1002.4 mb 0.00 in0.0 mm 0.00 in0.0 mm 0.00 in0.0 mm
02:45 AM 50.4°F10.2°C 47.8°F8.8°C 91% 2.2 mph WSW3.5 kmh WSW 8.3 mph13.4 kmh 29.60 in1002.4 mb 0.00 in0.0 mm 0.00 in0.0 mm 0.00 in0.0 mm
03:00 AM 50.2°F10.1°C 47.7°F8.7°C 91% 3.1 mph SW5.0 kmh SW 4.5 mph7.2 kmh 29.59 in1002.0 mb 0.00 in0.0 mm 0.00 in0.0 mm 0.00 in0.0 mm
03:15 AM 50.0°F10.0°C 47.5°F8.6°C 91% 2.2 mph SSW3.5 kmh SSW 4.5 mph7.2 kmh 29.59 in1002.0 mb 0.00 in0.0 mm 0.00 in0.0 mm 0.00 in0.0 mm
03:30 AM 49.8°F9.9°C 47.3°F8.5°C 91% 1.6 mph SW2.6 kmh SW 4.5 mph7.2 kmh 29.59 in1002.0 mb 0.00 in0.0 mm 0.00 in0.0 mm 0.00 in0.0 mm
03:45 AM 49.8°F9.9°C 47.3°F8.5°C 91% 3.1 mph SW5.0 kmh SW 5.4 mph8.7 kmh 29.58 in1001.7 mb 0.00 in0.0 mm 0.00 in0.0 mm 0.00 in0.0 mm
04:00 AM 49.6°F9.8°C 47.1°F8.4°C 91% 2.2 mph SSW3.5 kmh SSW 4.5 mph7.2 kmh 29.59 in1002.0 mb 0.00 in0.0 mm 0.00 in0.0 mm 0.00 in0.0 mm
04:15 AM 49.5°F9.7°C 46.9°F8.3°C 91% 2.2 mph SSW3.5 kmh SSW 3.1 mph5.0 kmh 29.58 in1001.7 mb 0.00 in0.0 mm 0.00 in0.0 mm 0.00 in0.0 mm
04:30 AM 49.3°F9.6°C 46.8°F8.2°C 91% 2.2 mph S3.5 kmh S 3.8 mph6.1 kmh 29.58 in1001.7 mb 0.00 in0.0 mm 0.00 in0.0 mm 0.00 in0.0 mm
04:45 AM 49.3°F9.6°C 46.8°F8.2°C 91% Calm Calm 5.4 mph8.7 kmh 29.57 in1001.4 mb 0.00 in0.0 mm 0.00 in0.0 mm 0.00 in0.0 mm
05:00 AM 49.3°F9.6°C 46.8°F8.2°C 91% Calm Calm 3.8 mph6.1 kmh 29.57 in1001.4 mb 0.00 in0.0 mm 0.00 in0.0 mm 0.00 in0.0 mm
05:15 AM 49.5°F9.7°C 47.2°F8.4°C 92% 4.5 mph SSE7.2 kmh SSE 5.4 mph8.7 kmh 29.57 in1001.4 mb 0.00 in0.0 mm 0.00 in0.0 mm 0.00 in0.0 mm
05:30 AM 49.6°F9.8°C 47.4°F8.6°C 92% 0.7 mph S1.1 kmh S 4.5 mph7.2 kmh 29.57 in1001.4 mb 0.00 in0.0 mm 0.00 in0.0 mm 0.00 in0.0 mm
05:45 AM 50.0°F10.0°C 47.8°F8.8°C 92% 1.6 mph SW2.6 kmh SW 4.5 mph7.2 kmh 29.57 in1001.4 mb 0.00 in0.0 mm 0.00 in0.0 mm 0.00 in0.0 mm
06:00 AM 50.2°F10.1°C 47.9°F8.8°C 92% 2.2 mph S3.5 kmh S 6.9 mph11.1 kmh 29.57 in1001.4 mb 0.00 in0.0 mm 0.00 in0.0 mm 0.00 in0.0 mm
06:15 AM 50.5°F10.3°C 48.6°F9.2°C 93% Calm Calm 6.0 mph9.7 kmh 29.57 in1001.4 mb 0.00 in0.0 mm 0.00 in0.0 mm 0.00 in0.0 mm
06:30 AM 51.6°F10.9°C 49.7°F9.8°C 93% 2.2 mph ENE3.5 kmh ENE 6.0 mph9.7 kmh 29.57 in1001.4 mb 0.01 in0.3 mm 0.04 in1.0 mm 0.01 in0.3 mm
06:45 AM 52.2°F11.2°C 50.2°F10.1°C 93% 3.1 mph SE5.0 kmh SE 8.3 mph13.4 kmh 29.57 in1001.4 mb 0.01 in0.3 mm 0.00 in0.0 mm 0.01 in0.3 mm
07:00 AM 53.1°F11.7°C 50.8°F10.4°C 92% 2.2 mph ESE3.5 kmh ESE 9.2 mph14.8 kmh 29.55 in1000.7 mb 0.01 in0.3 mm 0.00 in0.0 mm 0.01 in0.3 mm
07:15 AM 53.8°F12.1°C 51.2°F10.7°C 91% 3.8 mph E6.1 kmh E 9.2 mph14.8 kmh 29.55 in1000.7 mb 0.01 in0.3 mm 0.00 in0.0 mm 0.01 in0.3 mm
07:30 AM 54.5°F12.5°C 50.4°F10.2°C 86% 2.2 mph NW3.5 kmh NW 7.6 mph12.2 kmh 29.55 in1000.7 mb 0.00 in0.0 mm 0.00 in0.0 mm 0.01 in0.3 mm
07:45 AM 55.2°F12.9°C 50.1°F10.1°C 83% 2.2 mph NNE3.5 kmh NNE 5.4 mph8.7 kmh 29.54 in1000.3 mb 0.00 in0.0 mm 0.00 in0.0 mm 0.01 in0.3 mm
08:00 AM 55.8°F13.2°C 50.3°F10.2°C 82% 2.2 mph SE3.5 kmh SE 5.4 mph8.7 kmh 29.54 in1000.3 mb 0.00 in0.0 mm 0.00 in0.0 mm 0.01 in0.3 mm
08:15 AM 56.1°F13.4°C 50.4°F10.2°C 81% 3.1 mph ESE5.0 kmh ESE 8.3 mph13.4 kmh 29.54 in1000.3 mb 0.00 in0.0 mm 0.00 in0.0 mm 0.01 in0.3 mm
08:30 AM 56.5°F13.6°C 50.0°F10.0°C 79% 3.1 mph S5.0 kmh S 6.9 mph11.1 kmh 29.53 in1000.0 mb 0.00 in0.0 mm 0.00 in0.0 mm 0.01 in0.3 mm
08:45 AM 57.2°F14.0°C 50.4°F10.2°C 78% 3.8 mph E6.1 kmh E 9.2 mph14.8 kmh 29.51 in999.3 mb 0.00 in0.0 mm 0.00 in0.0 mm 0.01 in0.3 mm
09:00 AM 57.7°F14.3°C 50.2°F10.1°C 76% 6.0 mph NW9.7 kmh NW 9.8 mph15.8 kmh 29.50 in999.0 mb 0.00 in0.0 mm 0.00 in0.0 mm 0.01 in0.3 mm
09:15 AM 58.5°F14.7°C 50.6°F10.3°C 75% 2.2 mph SSE3.5 kmh SSE 10.7 mph17.2 kmh 29.50 in999.0 mb 0.00 in0.0 mm 0.00 in0.0 mm 0.01 in0.3 mm
09:30 AM 59.5°F15.3°C 51.2°F10.7°C 74% 3.1 mph ESE5.0 kmh ESE 6.9 mph11.1 kmh 29.50 in999.0 mb 0.00 in0.0 mm 0.00 in0.0 mm 0.01 in0.3 mm
09:45 AM 60.6°F15.9°C 51.5°F10.8°C 72% 3.8 mph E6.1 kmh E 11.4 mph18.3 kmh 29.49 in998.6 mb 0.00 in0.0 mm 0.00 in0.0 mm 0.01 in0.3 mm
10:00 AM 61.9°F16.6°C 51.6°F10.9°C 69% 3.1 mph S5.0 kmh S 9.2 mph14.8 kmh 29.48 in998.3 mb 0.00 in0.0 mm 0.00 in0.0 mm 0.01 in0.3 mm
10:15 AM 64.0°F17.8°C 52.4°F11.3°C 66% 3.1 mph W5.0 kmh W 7.6 mph12.2 kmh 29.47 in998.0 mb 0.00 in0.0 mm 0.00 in0.0 mm 0.01 in0.3 mm
10:30 AM 65.7°F18.7°C 51.4°F10.8°C 60% 7.6 mph NE12.2 kmh NE 16.8 mph27.0 kmh 29.46 in997.6 mb 0.00 in0.0 mm 0.00 in0.0 mm 0.01 in0.3 mm
10:45 AM 66.4°F19.1°C 50.7°F10.4°C 57% 7.6 mph NNE12.2 kmh NNE 15.9 mph25.6 kmh 29.45 in997.3 mb 0.00 in0.0 mm 0.00 in0.0 mm 0.01 in0.3 mm
11:00 AM 66.4°F19.1°C 50.2°F10.1°C 56% 5.4 mph E8.7 kmh E 17.4 mph28.0 kmh 29.45 in997.3 mb 0.00 in0.0 mm 0.00 in0.0 mm 0.01 in0.3 mm
11:15 AM 67.8°F19.9°C 52.0°F11.1°C 57% 8.3 mph SE13.4 kmh SE 15.9 mph25.6 kmh 29.44 in997.0 mb 0.00 in0.0 mm 0.00 in0.0 mm 0.01 in0.3 mm
11:30 AM 68.5°F20.3°C 50.7°F10.4°C 53% 10.7 mph ESE17.2 kmh ESE 17.4 mph28.0 kmh 29.43 in996.6 mb 0.00 in0.0 mm 0.00 in0.0 mm 0.01 in0.3 mm
11:45 AM 68.9°F20.5°C 51.1°F10.6°C 53% 5.4 mph NW8.7 kmh NW 17.4 mph28.0 kmh 29.42 in996.3 mb 0.00 in0.0 mm 0.00 in0.0 mm 0.01 in0.3 mm
12:00 PM 70.5°F21.4°C 51.5°F10.8°C 51% 5.4 mph SW8.7 kmh SW 15.9 mph25.6 kmh 29.42 in996.3 mb 0.00 in0.0 mm 0.00 in0.0 mm 0.01 in0.3 mm
12:15 PM 70.5°F21.4°C 50.4°F10.2°C 49% 15.2 mph S24.5 kmh S 19.7 mph31.7 kmh 29.41 in995.9 mb 0.00 in0.0 mm 0.00 in0.0 mm 0.01 in0.3 mm
12:30 PM 71.4°F21.9°C 49.6°F9.8°C 46% 12.1 mph WSW19.5 kmh WSW 18.3 mph29.5 kmh 29.40 in995.6 mb 0.00 in0.0 mm 0.00 in0.0 mm 0.01 in0.3 mm
12:45 PM 72.3°F22.4°C 50.4°F10.2°C 46% 12.1 mph SW19.5 kmh SW 17.4 mph28.0 kmh 29.40 in995.6 mb 0.00 in0.0 mm 0.00 in0.0 mm 0.01 in0.3 mm
01:00 PM 71.2°F21.8°C 47.0°F8.3°C 42% 9.8 mph SSW15.8 kmh SSW 22.8 mph36.7 kmh 29.40 in995.6 mb 0.00 in0.0 mm 0.00 in0.0 mm 0.01 in0.3 mm
01:15 PM 72.0°F22.2°C 48.2°F9.0°C 43% 5.4 mph W8.7 kmh W 22.1 mph35.6 kmh 29.40 in995.6 mb 0.00 in0.0 mm 0.00 in0.0 mm 0.01 in0.3 mm
01:30 PM 71.8°F22.1°C 48.1°F8.9°C 43% 7.6 mph WSW12.2 kmh WSW 17.4 mph28.0 kmh 29.40 in995.6 mb 0.00 in0.0 mm 0.00 in0.0 mm 0.01 in0.3 mm
01:45 PM 72.0°F22.2°C 47.0°F8.3°C 41% 10.7 mph SW17.2 kmh SW 16.8 mph27.0 kmh 29.38 in994.9 mb 0.00 in0.0 mm 0.00 in0.0 mm 0.01 in0.3 mm
02:00 PM 71.6°F22.0°C 44.6°F7.0°C 38% 9.8 mph SW15.8 kmh SW 18.3 mph29.5 kmh 29.39 in995.3 mb 0.00 in0.0 mm 0.00 in0.0 mm 0.01 in0.3 mm
02:15 PM 70.9°F21.6°C 45.3°F7.4°C 40% 11.4 mph SW18.3 kmh SW 20.6 mph33.2 kmh 29.39 in995.3 mb 0.00 in0.0 mm 0.00 in0.0 mm 0.01 in0.3 mm
02:30 PM 72.5°F22.5°C 44.7°F7.1°C 37% 9.8 mph WNW15.8 kmh WNW 19.7 mph31.7 kmh 29.38 in994.9 mb 0.00 in0.0 mm 0.00 in0.0 mm 0.01 in0.3 mm
02:45 PM 72.7°F22.6°C 43.4°F6.3°C 35% 13.6 mph WSW21.9 kmh WSW 19.7 mph31.7 kmh 29.37 in994.6 mb 0.00 in0.0 mm 0.00 in0.0 mm 0.01 in0.3 mm
03:00 PM 72.3°F22.4°C 46.6°F8.1°C 40% 10.7 mph SSW17.2 kmh SSW 19.0 mph30.6 kmh 29.37 in994.6 mb 0.00 in0.0 mm 0.00 in0.0 mm 0.01 in0.3 mm
03:15 PM 71.8°F22.1°C 46.2°F7.9°C 40% 13.0 mph SW20.9 kmh SW 19.7 mph31.7 kmh 29.37 in994.6 mb 0.00 in0.0 mm 0.00 in0.0 mm 0.01 in0.3 mm
03:30 PM 71.6°F22.0°C 46.6°F8.1°C 41% 9.8 mph SSW15.8 kmh SSW 16.8 mph27.0 kmh 29.36 in994.2 mb 0.00 in0.0 mm 0.00 in0.0 mm 0.01 in0.3 mm
03:45 PM 71.1°F21.7°C 46.8°F8.2°C 42% 9.2 mph W14.8 kmh W 20.6 mph33.2 kmh 29.37 in994.6 mb 0.00 in0.0 mm 0.00 in0.0 mm 0.01 in0.3 mm
04:00 PM 70.0°F21.1°C 45.8°F7.7°C 42% 12.1 mph WNW19.5 kmh WNW 16.8 mph27.0 kmh 29.36 in994.2 mb 0.00 in0.0 mm 0.00 in0.0 mm 0.01 in0.3 mm
04:15 PM 68.7°F20.4°C 46.5°F8.1°C 45% 6.9 mph WNW11.1 kmh WNW 15.9 mph25.6 kmh 29.38 in994.9 mb 0.00 in0.0 mm 0.00 in0.0 mm 0.01 in0.3 mm
04:30 PM 66.7°F19.3°C 48.5°F9.2°C 52% 8.3 mph WNW13.4 kmh WNW 13.6 mph21.9 kmh 29.36 in994.2 mb 0.00 in0.0 mm 0.00 in0.0 mm 0.01 in0.3 mm
04:45 PM 67.3°F19.6°C 49.0°F9.4°C 52% 5.4 mph SW8.7 kmh SW 13.6 mph21.9 kmh 29.36 in994.2 mb 0.00 in0.0 mm 0.00 in0.0 mm 0.01 in0.3 mm
05:00 PM 67.5°F19.7°C 49.2°F9.6°C 52% 6.9 mph SW11.1 kmh SW 13.0 mph20.9 kmh 29.35 in993.9 mb 0.00 in0.0 mm 0.00 in0.0 mm 0.01 in0.3 mm
05:15 PM 67.3°F19.6°C 49.0°F9.4°C 52% 3.8 mph NW6.1 kmh NW 11.4 mph18.3 kmh 29.35 in993.9 mb 0.00 in0.0 mm 0.00 in0.0 mm 0.01 in0.3 mm
05:30 PM 66.7°F19.3°C 49.1°F9.5°C 53% 6.9 mph S11.1 kmh S 14.5 mph23.3 kmh 29.36 in994.2 mb 0.00 in0.0 mm 0.00 in0.0 mm 0.01 in0.3 mm
05:45 PM 66.6°F19.2°C 48.9°F9.4°C 53% 8.3 mph WSW13.4 kmh WSW 13.0 mph20.9 kmh 29.36 in994.2 mb 0.00 in0.0 mm 0.00 in0.0 mm 0.01 in0.3 mm
06:00 PM 63.3°F17.4°C 49.6°F9.8°C 61% 19.7 mph SW31.7 kmh SW 42.5 mph68.4 kmh 29.37 in994.6 mb 0.00 in0.0 mm 0.00 in0.0 mm 0.01 in0.3 mm
06:15 PM 62.4°F16.9°C 48.8°F9.3°C 61% 9.2 mph WSW14.8 kmh WSW 25.1 mph40.4 kmh 29.39 in995.3 mb 0.00 in0.0 mm 0.00 in0.0 mm 0.01 in0.3 mm
06:30 PM 62.1°F16.7°C 48.9°F9.4°C 62% 10.7 mph NW17.2 kmh NW 21.3 mph34.3 kmh 29.41 in995.9 mb 0.00 in0.0 mm 0.00 in0.0 mm 0.01 in0.3 mm
06:45 PM 60.8°F16.0°C 48.1°F8.9°C 63% 12.1 mph WNW19.5 kmh WNW 16.8 mph27.0 kmh 29.41 in995.9 mb 0.00 in0.0 mm 0.00 in0.0 mm 0.01 in0.3 mm
07:00 PM 60.1°F15.6°C 47.9°F8.8°C 64% 10.7 mph W17.2 kmh W 26.6 mph42.8 kmh 29.44 in997.0 mb 0.00 in0.0 mm 0.00 in0.0 mm 0.01 in0.3 mm
07:15 PM 58.5°F14.7°C 47.1°F8.4°C 66% 6.9 mph NNW11.1 kmh NNW 22.1 mph35.6 kmh 29.41 in995.9 mb 0.00 in0.0 mm 0.00 in0.0 mm 0.01 in0.3 mm
07:30 PM 57.7°F14.3°C 47.2°F8.4°C 68% 9.8 mph NW15.8 kmh NW 14.5 mph23.3 kmh 29.42 in996.3 mb 0.00 in0.0 mm 0.00 in0.0 mm 0.01 in0.3 mm
07:45 PM 57.4°F14.1°C 47.7°F8.7°C 70% 9.2 mph W14.8 kmh W 12.1 mph19.5 kmh 29.42 in996.3 mb 0.00 in0.0 mm 0.00 in0.0 mm 0.01 in0.3 mm
08:00 PM 57.0°F13.9°C 47.3°F8.5°C 70% 5.4 mph WSW8.7 kmh WSW 9.8 mph15.8 kmh 29.43 in996.6 mb 0.00 in0.0 mm 0.00 in0.0 mm 0.01 in0.3 mm
08:15 PM 56.7°F13.7°C 47.4°F8.6°C 71% 6.9 mph WSW11.1 kmh WSW 14.5 mph23.3 kmh 29.43 in996.6 mb 0.00 in0.0 mm 0.00 in0.0 mm 0.01 in0.3 mm
08:30 PM 56.5°F13.6°C 47.2°F8.4°C 71% 6.0 mph W9.7 kmh W 9.8 mph15.8 kmh 29.43 in996.6 mb 0.00 in0.0 mm 0.00 in0.0 mm 0.01 in0.3 mm
08:45 PM 56.3°F13.5°C 47.4°F8.6°C 72% 5.4 mph WSW8.7 kmh WSW 12.1 mph19.5 kmh 29.43 in996.6 mb 0.00 in0.0 mm 0.00 in0.0 mm 0.01 in0.3 mm
09:00 PM 56.3°F13.5°C 47.4°F8.6°C 72% 6.9 mph WNW11.1 kmh WNW 13.0 mph20.9 kmh 29.44 in997.0 mb 0.00 in0.0 mm 0.00 in0.0 mm 0.01 in0.3 mm
09:15 PM 56.5°F13.6°C 47.6°F8.7°C 72% 7.6 mph SSW12.2 kmh SSW 11.4 mph18.3 kmh 29.45 in997.3 mb 0.00 in0.0 mm 0.00 in0.0 mm 0.01 in0.3 mm
09:30 PM 56.7°F13.7°C 47.7°F8.7°C 72% 4.5 mph SSW7.2 kmh SSW 19.0 mph30.6 kmh 29.45 in997.3 mb 0.00 in0.0 mm 0.00 in0.0 mm 0.01 in0.3 mm
09:45 PM 56.8°F13.8°C 47.9°F8.8°C 72% 7.6 mph WSW12.2 kmh WSW 13.6 mph21.9 kmh 29.45 in997.3 mb 0.00 in0.0 mm 0.00 in0.0 mm 0.01 in0.3 mm
10:00 PM 56.8°F13.8°C 47.5°F8.6°C 71% 9.2 mph SW14.8 kmh SW 14.5 mph23.3 kmh 29.46 in997.6 mb 0.00 in0.0 mm 0.00 in0.0 mm 0.01 in0.3 mm
10:15 PM 56.8°F13.8°C 47.2°F8.4°C 70% 9.2 mph NW14.8 kmh NW 19.7 mph31.7 kmh 29.46 in997.6 mb 0.00 in0.0 mm 0.00 in0.0 mm 0.01 in0.3 mm
10:30 PM 56.3°F13.5°C 45.1°F7.3°C 66% 8.3 mph WNW13.4 kmh WNW 17.4 mph28.0 kmh 29.47 in998.0 mb 0.00 in0.0 mm 0.00 in0.0 mm 0.01 in0.3 mm
10:45 PM 55.8°F13.2°C 43.8°F6.6°C 64% 12.1 mph WNW19.5 kmh WNW 22.1 mph35.6 kmh 29.48 in998.3 mb 0.00 in0.0 mm 0.00 in0.0 mm 0.01 in0.3 mm
11:00 PM 55.0°F12.8°C 42.3°F5.7°C 62% 9.8 mph NW15.8 kmh NW 18.3 mph29.5 kmh 29.49 in998.6 mb 0.00 in0.0 mm 0.00 in0.0 mm 0.01 in0.3 mm
11:15 PM 54.5°F12.5°C 42.2°F5.7°C 63% 13.0 mph NW20.9 kmh NW 19.7 mph31.7 kmh 29.49 in998.6 mb 0.00 in0.0 mm 0.00 in0.0 mm 0.01 in0.3 mm
11:30 PM 54.0°F12.2°C 43.2°F6.2°C 67% 9.2 mph NW14.8 kmh NW 17.4 mph28.0 kmh 29.50 in999.0 mb 0.00 in0.0 mm 0.00 in0.0 mm 0.01 in0.3 mm
11:45 PM 53.4°F11.9°C 43.5°F6.4°C 69% 8.3 mph NW13.4 kmh NW 16.8 mph27.0 kmh 29.50 in999.0 mb 0.00 in0.0 mm 0.00 in0.0 mm 0.01 in0.3 mm